createdAt,value
2022-12-22T00:03:52.797Z,19.50
2022-12-22T00:06:38.403Z,21.15
2022-12-22T00:09:23.761Z,20.38
2022-12-22T00:12:09.330Z,21.60
2022-12-22T00:14:54.893Z,21.77
2022-12-22T00:17:49.265Z,21.58
2022-12-22T00:20:38.428Z,21.85
2022-12-22T00:23:23.860Z,22.58
2022-12-22T00:26:09.080Z,22.83
2022-12-22T00:28:54.835Z,21.63
2022-12-22T00:31:41.250Z,20.15
2022-12-22T00:34:39.700Z,22.38
2022-12-22T00:37:30.714Z,21.20
2022-12-22T00:40:17.649Z,20.63
2022-12-22T00:43:03.244Z,21.95
2022-12-22T00:45:49.180Z,20.83
2022-12-22T00:48:42.004Z,20.52
2022-12-22T00:51:28.546Z,20.77
2022-12-22T00:54:14.728Z,20.58
2022-12-22T00:57:00.903Z,21.35
2022-12-22T00:59:46.826Z,20.63
2022-12-22T01:02:32.161Z,21.52
2022-12-22T01:05:17.509Z,20.67
2022-12-22T01:08:02.985Z,20.48
2022-12-22T01:10:48.382Z,20.50
2022-12-22T01:13:34.669Z,21.75
2022-12-22T01:16:20.149Z,21.75
2022-12-22T01:19:05.903Z,20.10
2022-12-22T01:21:51.109Z,21.48
2022-12-22T01:24:37.783Z,18.75
2022-12-22T01:27:23.719Z,21.50
2022-12-22T01:30:09.248Z,21.55
2022-12-22T01:32:54.744Z,21.25
2022-12-22T01:35:45.573Z,20.77
2022-12-22T01:38:30.925Z,18.65
2022-12-22T01:41:18.670Z,20.70
2022-12-22T01:44:04.297Z,19.90
2022-12-22T01:46:52.559Z,20.13
2022-12-22T01:49:43.107Z,20.50
2022-12-22T01:52:31.036Z,21.30
2022-12-22T01:55:20.957Z,20.77
2022-12-22T01:58:06.546Z,21.10
2022-12-22T02:00:51.853Z,19.70
2022-12-22T02:03:40.502Z,21.25
2022-12-22T02:06:56.235Z,21.33
2022-12-22T02:10:01.622Z,22.27
2022-12-22T02:13:09.288Z,22.00
2022-12-22T02:16:17.255Z,19.80
2022-12-22T02:19:50.771Z,17.42
2022-12-22T02:23:05.706Z,19.30
2022-12-22T02:26:00.519Z,20.52
2022-12-22T02:28:46.306Z,19.00
2022-12-22T02:31:31.675Z,18.38
2022-12-22T02:34:17.314Z,20.42
2022-12-22T02:37:22.947Z,17.65
2022-12-22T02:40:21.624Z,17.73
2022-12-22T02:43:32.306Z,20.17
2022-12-22T02:46:40.099Z,20.27
2022-12-22T02:49:58.077Z,19.65
2022-12-22T02:52:49.560Z,19.98
2022-12-22T02:55:35.794Z,19.55
2022-12-22T02:58:21.228Z,20.58
2022-12-22T03:01:06.927Z,19.88
2022-12-22T03:03:52.261Z,20.70
2022-12-22T03:06:37.773Z,19.50
2022-12-22T03:09:22.977Z,20.02
2022-12-22T03:12:08.737Z,17.98
2022-12-22T03:14:54.085Z,19.23
2022-12-22T03:17:39.374Z,20.23
2022-12-22T03:20:25.366Z,19.00
2022-12-22T03:23:10.889Z,19.60
2022-12-22T03:25:53.493Z,20.25
2022-12-22T03:28:28.541Z,19.85
2022-12-22T03:31:01.734Z,21.10
2022-12-22T03:33:29.714Z,20.55
2022-12-22T03:35:56.751Z,19.25
2022-12-22T03:38:23.500Z,20.00
2022-12-22T03:40:50.329Z,18.30
2022-12-22T03:43:36.417Z,17.02
2022-12-22T03:46:15.333Z,17.77
2022-12-22T03:48:42.607Z,19.38
2022-12-22T03:51:09.393Z,19.35
2022-12-22T03:53:36.185Z,20.80
2022-12-22T03:56:07.717Z,19.92
2022-12-22T03:58:35.141Z,18.02
2022-12-22T04:01:08.322Z,19.00
2022-12-22T04:03:35.159Z,20.48
2022-12-22T04:06:01.958Z,17.90
2022-12-22T04:08:28.776Z,17.27
2022-12-22T04:11:14.240Z,17.88
2022-12-22T04:13:41.033Z,18.70
2022-12-22T04:16:07.825Z,19.02
2022-12-22T04:18:34.583Z,17.33
2022-12-22T04:21:01.349Z,17.55
2022-12-22T04:23:28.125Z,19.88
2022-12-22T04:25:55.024Z,18.85
2022-12-22T04:28:22.113Z,17.77
2022-12-22T04:30:52.171Z,17.42
2022-12-22T04:33:18.927Z,17.80
2022-12-22T04:35:45.674Z,21.20
2022-12-22T04:38:12.494Z,20.42
2022-12-22T04:40:39.208Z,20.13
2022-12-22T04:43:06.337Z,19.52
2022-12-22T04:45:33.127Z,20.77
2022-12-22T04:47:59.972Z,21.17
2022-12-22T04:50:26.869Z,18.77
2022-12-22T04:52:53.635Z,20.58
2022-12-22T04:55:20.524Z,21.10
2022-12-22T04:57:47.294Z,20.13
2022-12-22T05:00:15.042Z,20.00
2022-12-22T05:02:41.782Z,20.42
2022-12-22T05:05:09.083Z,23.02
2022-12-22T05:07:35.851Z,23.02
2022-12-22T05:10:04.286Z,21.73
2022-12-22T05:12:49.469Z,22.88
2022-12-22T05:15:16.362Z,18.95
2022-12-22T05:17:43.041Z,19.17
2022-12-22T05:20:10.056Z,18.80
2022-12-22T05:22:36.882Z,21.92
2022-12-22T05:25:03.865Z,20.48
2022-12-22T05:27:30.582Z,19.48
2022-12-22T05:29:57.272Z,21.17
2022-12-22T05:32:24.078Z,20.63
2022-12-22T05:34:50.808Z,21.27
2022-12-22T05:37:17.533Z,22.88
2022-12-22T05:39:44.379Z,22.58
2022-12-22T05:42:11.107Z,20.98
2022-12-22T05:44:37.902Z,21.73
2022-12-22T05:47:04.662Z,21.88
2022-12-22T05:49:31.473Z,20.63
2022-12-22T05:51:58.195Z,19.33
2022-12-22T05:54:24.944Z,19.52
2022-12-22T05:56:51.731Z,21.05
2022-12-22T05:59:18.502Z,23.73
2022-12-22T06:01:45.300Z,20.65
2022-12-22T06:04:12.327Z,21.85
2022-12-22T06:06:39.216Z,18.58
2022-12-22T06:09:05.948Z,21.77
2022-12-22T06:11:32.748Z,21.65
2022-12-22T06:13:59.513Z,20.63
2022-12-22T06:16:26.253Z,20.52
2022-12-22T06:18:53.101Z,20.83
2022-12-22T06:21:19.835Z,20.98
2022-12-22T06:23:46.976Z,22.58
2022-12-22T06:26:13.760Z,23.75
2022-12-22T06:28:40.558Z,26.85
2022-12-22T06:31:07.338Z,25.02
2022-12-22T06:33:34.770Z,25.85
2022-12-22T06:36:05.556Z,26.50
2022-12-22T06:38:32.453Z,27.02
2022-12-22T06:40:59.208Z,26.40
2022-12-22T06:43:26.371Z,25.10
2022-12-22T06:45:53.774Z,25.80
2022-12-22T06:48:20.793Z,26.13
2022-12-22T06:50:47.903Z,24.85
2022-12-22T06:53:14.817Z,28.90
2022-12-22T06:55:41.624Z,25.83
2022-12-22T06:58:08.426Z,28.42
2022-12-22T07:00:35.567Z,28.85
2022-12-22T07:03:02.442Z,26.05
2022-12-22T07:05:32.041Z,27.13
2022-12-22T07:08:05.968Z,28.00
2022-12-22T07:10:53.650Z,24.23
2022-12-22T07:13:20.578Z,26.40
2022-12-22T07:15:53.885Z,26.15
2022-12-22T07:18:26.580Z,24.55
2022-12-22T07:20:54.617Z,25.23
2022-12-22T07:23:21.378Z,24.02
2022-12-22T07:25:48.133Z,26.52
2022-12-22T07:28:20.180Z,24.35
2022-12-22T07:30:47.885Z,25.88
2022-12-22T07:33:14.741Z,25.35
2022-12-22T07:35:41.506Z,26.13
2022-12-22T07:38:08.345Z,27.48
2022-12-22T07:40:39.591Z,25.98
2022-12-22T07:43:08.814Z,26.85
2022-12-22T07:45:35.612Z,26.52
2022-12-22T07:48:22.869Z,26.23
2022-12-22T07:50:49.638Z,26.30
2022-12-22T07:53:16.355Z,27.60
2022-12-22T07:55:43.094Z,26.38
2022-12-22T07:58:09.847Z,24.00
2022-12-22T08:00:36.588Z,22.92
2022-12-22T08:03:03.422Z,22.88
2022-12-22T08:05:30.332Z,22.27
2022-12-22T08:07:57.037Z,22.60
2022-12-22T08:10:24.177Z,22.38
2022-12-22T08:12:51.108Z,20.83
2022-12-22T08:15:18.069Z,19.92
2022-12-22T08:17:44.893Z,19.73
2022-12-22T08:20:11.868Z,19.42
2022-12-22T08:22:38.661Z,18.80
2022-12-22T08:25:05.662Z,19.60
2022-12-22T08:27:44.459Z,19.77
2022-12-22T08:30:12.536Z,21.35
2022-12-22T08:32:40.939Z,20.30
2022-12-22T08:35:09.408Z,19.52
2022-12-22T08:37:41.627Z,21.88
2022-12-22T08:40:12.971Z,20.90
2022-12-22T08:42:40.855Z,19.65
2022-12-22T08:45:09.487Z,18.55
2022-12-22T08:47:36.471Z,20.42
2022-12-22T08:50:04.197Z,21.17
2022-12-22T08:52:31.721Z,18.92
2022-12-22T08:54:58.561Z,19.08
2022-12-22T08:57:25.331Z,19.05
2022-12-22T08:59:52.117Z,19.02
2022-12-22T09:02:18.936Z,20.23
2022-12-22T09:04:45.817Z,19.67
2022-12-22T09:07:12.765Z,19.52
2022-12-22T09:09:39.639Z,20.63
2022-12-22T09:12:06.908Z,19.02
2022-12-22T09:14:34.089Z,18.45
2022-12-22T09:17:01.069Z,19.60
2022-12-22T09:19:28.236Z,19.58
2022-12-22T09:21:55.137Z,21.05
2022-12-22T09:24:22.070Z,18.70
2022-12-22T09:26:48.883Z,20.10
2022-12-22T09:29:16.005Z,19.38
2022-12-22T09:31:43.334Z,19.98
2022-12-22T09:34:15.336Z,19.55
2022-12-22T09:36:45.122Z,21.23
2022-12-22T09:39:12.051Z,20.58
2022-12-22T09:41:51.540Z,20.55
2022-12-22T09:44:21.007Z,21.27
2022-12-22T09:46:48.028Z,20.52
2022-12-22T09:49:16.924Z,19.60
2022-12-22T09:51:49.128Z,20.15
2022-12-22T09:54:16.406Z,18.40
2022-12-22T09:56:43.468Z,20.17
2022-12-22T09:59:15.585Z,19.38
2022-12-22T10:02:00.981Z,19.30
2022-12-22T10:04:57.364Z,18.98
2022-12-22T10:07:38.604Z,20.55
2022-12-22T10:10:15.893Z,19.27
2022-12-22T10:12:42.812Z,18.27
2022-12-22T10:15:18.348Z,18.83
2022-12-22T10:17:54.384Z,19.80
2022-12-22T10:20:27.879Z,17.63
2022-12-22T10:22:59.242Z,18.67
2022-12-22T10:26:25.970Z,17.15
2022-12-22T10:28:29.174Z,17.33
2022-12-22T10:31:14.336Z,17.15
2022-12-22T10:33:46.761Z,19.27
2022-12-22T10:36:16.507Z,17.70
2022-12-22T10:39:08.973Z,19.83
2022-12-22T10:41:40.371Z,19.20
2022-12-22T10:44:16.273Z,20.85
2022-12-22T10:46:47.092Z,20.67
2022-12-22T10:49:16.988Z,22.77
2022-12-22T10:51:47.404Z,21.27
2022-12-22T10:54:31.434Z,20.42
2022-12-22T10:57:07.741Z,20.80
2022-12-22T10:59:46.609Z,23.08
2022-12-22T11:02:28.077Z,21.73
2022-12-22T11:05:02.158Z,19.40
2022-12-22T11:07:32.037Z,20.98
2022-12-22T11:09:58.843Z,20.27
2022-12-22T11:12:40.609Z,22.02
2022-12-22T11:15:29.826Z,21.60
2022-12-22T11:18:19.873Z,22.33
2022-12-22T11:21:05.487Z,20.58
2022-12-22T11:23:53.384Z,20.35
2022-12-22T11:26:44.759Z,21.13
2022-12-22T11:29:41.828Z,19.05
2022-12-22T11:32:51.901Z,20.30
2022-12-22T11:35:56.319Z,22.27
2022-12-22T11:38:46.861Z,20.52
2022-12-22T11:41:42.868Z,20.05
2022-12-22T11:44:28.737Z,19.45
2022-12-22T11:47:40.225Z,19.23
2022-12-22T11:51:01.979Z,20.50
2022-12-22T11:53:37.149Z,19.77
2022-12-22T11:56:22.501Z,18.08
2022-12-22T11:59:35.099Z,19.17
2022-12-22T12:02:31.880Z,20.70
2022-12-22T12:05:08.024Z,19.88
2022-12-22T12:07:37.776Z,20.67
2022-12-22T12:10:25.703Z,19.13
2022-12-22T12:13:27.472Z,18.95
2022-12-22T12:16:20.181Z,19.98
2022-12-22T12:19:14.441Z,22.13
2022-12-22T12:21:52.765Z,19.48
2022-12-22T12:24:25.849Z,20.08
2022-12-22T12:27:32.087Z,18.60
2022-12-22T12:30:37.645Z,19.65
2022-12-22T12:33:08.747Z,18.42
2022-12-22T12:36:02.947Z,18.60
2022-12-22T12:41:33.540Z,16.95
2022-12-22T12:44:02.620Z,17.60
2022-12-22T12:46:51.737Z,18.50
2022-12-22T12:49:58.770Z,17.90
2022-12-22T12:52:40.547Z,17.58
2022-12-22T12:55:33.154Z,17.73
2022-12-22T12:58:03.519Z,18.38
2022-12-22T13:00:35.021Z,18.98
2022-12-22T13:03:04.151Z,19.10
2022-12-22T13:05:51.794Z,19.88
2022-12-22T13:08:24.396Z,18.42
2022-12-22T13:10:54.179Z,20.85
2022-12-22T13:13:26.564Z,20.35
2022-12-22T13:16:02.782Z,19.13
2022-12-22T13:18:29.888Z,18.33
2022-12-22T13:21:18.615Z,19.75
2022-12-22T13:24:24.096Z,19.58
2022-12-22T13:26:55.307Z,19.60
2022-12-22T13:29:22.122Z,19.63
2022-12-22T13:31:53.208Z,22.48
2022-12-22T13:34:22.915Z,21.05
2022-12-22T13:36:51.128Z,23.30
2022-12-22T13:39:17.878Z,22.35
2022-12-22T13:41:48.627Z,23.55
2022-12-22T13:44:33.824Z,23.75
2022-12-22T13:47:06.404Z,24.33
2022-12-22T13:50:07.056Z,22.27
2022-12-22T13:52:23.713Z,22.60
2022-12-22T13:54:50.607Z,20.55
2022-12-22T13:57:20.541Z,22.55
2022-12-22T13:59:50.490Z,22.23
2022-12-22T14:02:20.033Z,22.17
2022-12-22T14:05:07.369Z,23.17
2022-12-22T14:07:34.178Z,22.38
2022-12-22T14:10:01.129Z,22.35
2022-12-22T14:12:41.183Z,21.27
2022-12-22T14:15:17.625Z,20.50
2022-12-22T14:17:52.273Z,20.52
2022-12-22T14:20:27.050Z,19.73
2022-12-22T14:22:59.443Z,21.77
2022-12-22T14:25:32.098Z,20.90
2022-12-22T14:27:59.615Z,20.65
2022-12-22T14:30:42.230Z,20.05
2022-12-22T14:33:38.642Z,20.55
2022-12-22T14:36:17.347Z,20.05
2022-12-22T14:38:50.016Z,21.08
2022-12-22T14:41:42.955Z,20.60
2022-12-22T14:44:14.325Z,21.38
2022-12-22T14:46:42.979Z,20.77
2022-12-22T14:49:19.076Z,20.00
2022-12-22T14:52:05.869Z,19.58
2022-12-22T14:54:32.796Z,19.52
2022-12-22T14:57:10.005Z,20.73
2022-12-22T14:59:42.008Z,21.85
2022-12-22T15:02:34.924Z,19.38
2022-12-22T15:05:24.282Z,22.52
2022-12-22T15:08:09.903Z,23.58
2022-12-22T15:10:44.700Z,24.90
2022-12-22T15:13:24.299Z,20.60
2022-12-22T15:15:51.936Z,18.35
2022-12-22T15:18:26.785Z,22.33
2022-12-22T15:20:55.147Z,19.83
2022-12-22T15:23:22.435Z,20.15
2022-12-22T15:25:49.148Z,20.13
2022-12-22T15:28:16.090Z,19.17
2022-12-22T15:30:43.287Z,18.55
2022-12-22T15:33:13.723Z,18.77
2022-12-22T15:35:41.289Z,20.65
2022-12-22T15:38:16.357Z,20.45
2022-12-22T15:40:43.526Z,19.98
2022-12-22T15:43:28.703Z,18.17
2022-12-22T15:45:58.693Z,18.70
2022-12-22T15:48:29.494Z,17.17
2022-12-22T15:50:57.108Z,17.35
2022-12-22T15:53:24.075Z,19.75
2022-12-22T15:55:53.491Z,17.50
2022-12-22T15:58:26.272Z,15.88
2022-12-22T16:00:53.116Z,18.52
2022-12-22T16:03:20.153Z,17.08
2022-12-22T16:05:46.982Z,18.45
2022-12-22T16:08:20.524Z,18.95
2022-12-22T16:10:51.420Z,16.83
2022-12-22T16:13:22.513Z,17.90
2022-12-22T16:15:53.731Z,15.27
2022-12-22T16:18:29.558Z,14.50
2022-12-22T16:21:04.684Z,14.70
2022-12-22T16:23:31.454Z,15.98
2022-12-22T16:26:02.090Z,15.32
2022-12-22T16:28:30.215Z,14.10
2022-12-22T16:30:57.308Z,15.65
2022-12-22T16:33:24.038Z,13.27
2022-12-22T16:35:56.055Z,15.02
2022-12-22T16:38:22.926Z,14.82
2022-12-22T16:40:53.159Z,13.80
2022-12-22T16:46:17.739Z,15.18
2022-12-22T16:48:55.563Z,16.73
2022-12-22T16:51:28.232Z,16.83
2022-12-22T16:53:55.423Z,18.63
2022-12-22T16:56:28.223Z,19.85
2022-12-22T16:58:55.270Z,19.58
2022-12-22T17:01:40.092Z,19.10
2022-12-22T17:04:23.985Z,22.33
2022-12-22T17:06:55.717Z,18.08
2022-12-22T17:09:34.505Z,18.33
2022-12-22T17:12:01.812Z,19.30
2022-12-22T17:14:39.908Z,16.48
2022-12-22T17:17:19.311Z,16.95
2022-12-22T17:19:50.109Z,14.57
2022-12-22T17:22:29.744Z,12.50
2022-12-22T17:25:02.224Z,14.32
2022-12-22T17:27:32.668Z,14.73
2022-12-22T17:30:05.858Z,12.80
2022-12-22T17:32:32.836Z,14.73
2022-12-22T17:35:05.956Z,15.90
2022-12-22T17:37:33.753Z,13.50
2022-12-22T17:40:02.735Z,14.77
2022-12-22T17:42:32.038Z,14.85
2022-12-22T17:44:58.965Z,13.03
2022-12-22T17:47:33.391Z,11.55
2022-12-22T17:50:03.846Z,13.02
2022-12-22T17:52:30.750Z,13.27
2022-12-22T17:54:57.748Z,13.98
2022-12-22T17:57:33.082Z,14.57
2022-12-22T18:00:01.266Z,15.43
2022-12-22T18:02:29.713Z,14.60
2022-12-22T18:04:56.708Z,14.30
2022-12-22T18:07:25.133Z,15.63
2022-12-22T18:09:59.097Z,15.25
2022-12-22T18:12:26.180Z,15.88
2022-12-22T18:14:53.160Z,14.88
2022-12-22T18:17:23.353Z,15.13
2022-12-22T18:22:25.815Z,14.70
2022-12-22T18:24:54.634Z,15.70
2022-12-22T18:27:23.116Z,14.35
2022-12-22T18:29:50.216Z,14.27
2022-12-22T18:32:26.292Z,13.52
2022-12-22T18:34:54.413Z,17.40
2022-12-22T18:37:21.250Z,13.75
2022-12-22T18:39:48.065Z,14.02
2022-12-22T18:42:23.007Z,11.45
2022-12-22T18:44:51.085Z,16.38
2022-12-22T18:47:18.485Z,14.23
2022-12-22T18:49:45.863Z,13.50
2022-12-22T18:52:19.351Z,12.93
2022-12-22T18:54:46.709Z,11.20
2022-12-22T18:57:16.223Z,12.43
2022-12-22T18:59:43.912Z,13.00
2022-12-22T19:02:27.219Z,11.63
2022-12-22T19:04:54.958Z,10.52
2022-12-22T19:07:25.488Z,12.77
2022-12-22T19:09:52.509Z,10.45
2022-12-22T19:12:23.423Z,10.25
2022-12-22T19:14:58.637Z,8.57
2022-12-22T19:17:29.748Z,10.35
2022-12-22T19:19:57.744Z,9.95
2022-12-22T19:22:24.845Z,14.40
2022-12-22T19:24:52.316Z,13.98
2022-12-22T19:27:26.095Z,13.13
2022-12-22T19:30:04.055Z,14.00
2022-12-22T19:32:39.671Z,13.75
2022-12-22T19:35:33.854Z,12.00
2022-12-22T19:38:00.726Z,11.63
2022-12-22T19:40:33.678Z,13.00
2022-12-22T19:43:00.701Z,11.13
2022-12-22T19:45:30.728Z,9.68
2022-12-22T19:47:58.171Z,9.57
2022-12-22T19:50:28.416Z,9.32
2022-12-22T19:55:28.594Z,9.77
2022-12-22T19:57:56.398Z,9.52
2022-12-22T20:00:26.045Z,9.70
2022-12-22T20:02:56.196Z,8.88
2022-12-22T20:07:56.347Z,9.27
2022-12-22T20:10:24.739Z,9.00
2022-12-22T20:12:54.327Z,8.73
2022-12-22T20:15:30.608Z,8.65
2022-12-22T20:17:58.233Z,8.10
2022-12-22T20:20:36.672Z,7.95
2022-12-22T20:23:10.673Z,8.27
2022-12-22T20:25:43.155Z,8.68
2022-12-22T20:28:25.707Z,8.00
2022-12-22T20:30:53.574Z,7.85
2022-12-22T20:33:22.532Z,7.90
2022-12-22T20:35:51.579Z,7.68
2022-12-22T20:38:29.906Z,8.50
2022-12-22T20:40:56.883Z,8.02
2022-12-22T20:43:26.067Z,7.55
2022-12-22T20:45:57.017Z,7.83
2022-12-22T20:48:30.448Z,8.25
2022-12-22T20:50:57.705Z,8.07
2022-12-22T20:53:24.736Z,8.80
2022-12-22T20:55:52.409Z,9.18
2022-12-22T20:58:23.906Z,8.50
2022-12-22T21:00:53.180Z,9.40
2022-12-22T21:03:20.064Z,7.93
2022-12-22T21:05:48.084Z,8.48
2022-12-22T21:08:26.388Z,7.70
2022-12-22T21:10:54.859Z,7.18
2022-12-22T21:13:22.398Z,7.72
2022-12-22T21:15:51.984Z,9.20
2022-12-22T21:18:23.267Z,9.85
2022-12-22T21:20:51.328Z,9.18
2022-12-22T21:23:18.113Z,11.90
2022-12-22T21:25:48.835Z,11.40
2022-12-22T21:28:28.330Z,10.25
2022-12-22T21:30:55.183Z,13.57
2022-12-22T21:33:23.599Z,12.45
2022-12-22T21:35:51.523Z,11.32
2022-12-22T21:38:20.532Z,13.27
2022-12-22T21:40:47.428Z,10.80
2022-12-22T21:43:15.702Z,11.32
2022-12-22T21:45:45.924Z,12.05
2022-12-22T21:48:16.589Z,12.77
2022-12-22T21:50:43.491Z,12.80
2022-12-22T21:53:10.339Z,11.73
2022-12-22T21:55:39.555Z,11.93
2022-12-22T21:58:10.178Z,10.33
2022-12-22T22:00:41.408Z,11.10
2022-12-22T22:03:08.360Z,10.50
2022-12-22T22:05:39.629Z,10.60
2022-12-22T22:08:09.123Z,11.82
2022-12-22T22:10:43.848Z,13.20
2022-12-22T22:13:15.617Z,11.88
2022-12-22T22:15:43.193Z,11.98
2022-12-22T22:18:20.828Z,11.48
2022-12-22T22:20:48.100Z,11.18
2022-12-22T22:23:15.198Z,10.95
2022-12-22T22:25:42.192Z,11.05
2022-12-22T22:28:11.698Z,9.52
2022-12-22T22:30:44.553Z,9.68
2022-12-22T22:33:11.500Z,10.13
2022-12-22T22:35:41.665Z,9.95
2022-12-22T22:40:50.681Z,9.63
2022-12-22T22:43:17.462Z,10.80
2022-12-22T22:45:44.298Z,10.15
2022-12-22T22:48:19.806Z,8.85
2022-12-22T22:50:46.612Z,9.02
2022-12-22T22:53:14.919Z,9.80
2022-12-22T22:55:41.908Z,9.80
2022-12-22T22:58:11.655Z,10.13
2022-12-22T23:00:39.298Z,11.18
2022-12-22T23:03:06.650Z,9.77
2022-12-22T23:05:33.766Z,10.50
2022-12-22T23:08:00.528Z,9.85
2022-12-22T23:10:27.371Z,10.57
2022-12-22T23:12:55.071Z,9.88
2022-12-22T23:15:21.936Z,10.40
2022-12-22T23:17:51.267Z,10.63
2022-12-22T23:20:18.122Z,10.40
2022-12-22T23:22:44.860Z,9.65
2022-12-22T23:25:11.648Z,9.77
2022-12-22T23:27:38.460Z,10.02
2022-12-22T23:30:05.765Z,10.00
2022-12-22T23:32:32.619Z,10.57
2022-12-22T23:34:59.447Z,10.50
2022-12-22T23:37:26.599Z,10.00
2022-12-22T23:39:53.370Z,11.82
2022-12-22T23:42:20.216Z,10.25
2022-12-22T23:44:48.374Z,10.27
2022-12-22T23:47:15.101Z,9.88
2022-12-22T23:49:41.911Z,10.70
2022-12-22T23:52:08.668Z,11.00
2022-12-22T23:54:35.480Z,9.77
2022-12-22T23:57:02.321Z,9.10
2022-12-22T23:59:29.184Z,8.50
